sensor_id;sensor_type;location;lat;lon;timestamp;pressure;altitude;pressure_sealevel;temperature;humidity
77205;BME280;66188;46.626;18.866;2023-02-12T00:00:36;101517.13;;;13.71;30.14
77205;BME280;66188;46.626;18.866;2023-02-12T00:03:02;101517.13;;;13.71;30.25
77205;BME280;66188;46.626;18.866;2023-02-12T00:05:28;101511.06;;;13.69;30.69
77205;BME280;66188;46.626;18.866;2023-02-12T00:07:54;101516.56;;;13.67;31.01
77205;BME280;66188;46.626;18.866;2023-02-12T00:10:20;101513.13;;;13.65;31.16
77205;BME280;66188;46.626;18.866;2023-02-12T00:12:46;101506.50;;;13.60;30.38
77205;BME280;66188;46.626;18.866;2023-02-12T00:15:11;101523.00;;;13.65;30.93
77205;BME280;66188;46.626;18.866;2023-02-12T00:17:37;101521.16;;;13.65;30.40
77205;BME280;66188;46.626;18.866;2023-02-12T00:20:03;101506.97;;;13.65;30.34
77205;BME280;66188;46.626;18.866;2023-02-12T00:22:29;101517.06;;;13.61;30.62
77205;BME280;66188;46.626;18.866;2023-02-12T00:24:55;101520.34;;;13.65;31.08
77205;BME280;66188;46.626;18.866;2023-02-12T00:27:21;101516.09;;;13.62;31.32
77205;BME280;66188;46.626;18.866;2023-02-12T00:29:47;101515.09;;;13.63;31.06
77205;BME280;66188;46.626;18.866;2023-02-12T00:32:13;101489.53;;;13.50;31.43
77205;BME280;66188;46.626;18.866;2023-02-12T00:34:44;101512.69;;;13.60;31.17
77205;BME280;66188;46.626;18.866;2023-02-12T00:37:09;101531.28;;;13.62;31.28
77205;BME280;66188;46.626;18.866;2023-02-12T00:39:35;101522.56;;;13.60;30.81
77205;BME280;66188;46.626;18.866;2023-02-12T00:42:03;101541.13;;;13.61;31.13
77205;BME280;66188;46.626;18.866;2023-02-12T00:44:29;101521.63;;;13.50;30.79
77205;BME280;66188;46.626;18.866;2023-02-12T00:46:55;101529.00;;;13.57;30.87
77205;BME280;66188;46.626;18.866;2023-02-12T00:49:21;101533.50;;;13.57;30.86
77205;BME280;66188;46.626;18.866;2023-02-12T00:51:47;101533.63;;;13.55;31.71
77205;BME280;66188;46.626;18.866;2023-02-12T00:54:13;101531.81;;;13.56;32.08
77205;BME280;66188;46.626;18.866;2023-02-12T00:56:39;101523.78;;;13.56;31.10
77205;BME280;66188;46.626;18.866;2023-02-12T00:59:04;101513.22;;;13.54;31.32
77205;BME280;66188;46.626;18.866;2023-02-12T01:01:30;101515.91;;;13.54;31.58
77205;BME280;66188;46.626;18.866;2023-02-12T01:03:56;101517.00;;;13.52;31.47
77205;BME280;66188;46.626;18.866;2023-02-12T01:06:21;101517.00;;;13.52;32.15
77205;BME280;66188;46.626;18.866;2023-02-12T01:08:51;101517.00;;;13.52;31.23
77205;BME280;66188;46.626;18.866;2023-02-12T01:11:18;101501.06;;;13.50;32.16
77205;BME280;66188;46.626;18.866;2023-02-12T01:13:44;101509.09;;;13.50;31.87
77205;BME280;66188;46.626;18.866;2023-02-12T01:16:16;101509.22;;;13.49;31.78
77205;BME280;66188;46.626;18.866;2023-02-12T01:18:42;101503.03;;;13.48;32.32
77205;BME280;66188;46.626;18.866;2023-02-12T01:21:22;101519.22;;;13.47;32.52
77205;BME280;66188;46.626;18.866;2023-02-12T01:23:48;101514.72;;;13.47;32.53
77205;BME280;66188;46.626;18.866;2023-02-12T01:26:15;101514.84;;;13.46;32.37
77205;BME280;66188;46.626;18.866;2023-02-12T01:28:43;101530.88;;;13.46;32.58
77205;BME280;66188;46.626;18.866;2023-02-12T01:31:14;101518.88;;;13.40;32.48
77205;BME280;66188;46.626;18.866;2023-02-12T01:33:40;101527.75;;;13.41;32.29
77205;BME280;66188;46.626;18.866;2023-02-12T01:36:07;101529.06;;;13.46;32.26
77205;BME280;66188;46.626;18.866;2023-02-12T01:38:33;101516.78;;;13.44;32.00
77205;BME280;66188;46.626;18.866;2023-02-12T01:41:07;101516.78;;;13.44;31.98
77205;BME280;66188;46.626;18.866;2023-02-12T01:43:34;101512.69;;;13.40;32.55
77205;BME280;66188;46.626;18.866;2023-02-12T01:46:01;101484.25;;;13.39;32.18
77205;BME280;66188;46.626;18.866;2023-02-12T01:48:30;101498.22;;;13.42;31.90
77205;BME280;66188;46.626;18.866;2023-02-12T01:50:56;101498.31;;;13.41;32.44
77205;BME280;66188;46.626;18.866;2023-02-12T01:53:30;101488.63;;;13.40;32.63
77205;BME280;66188;46.626;18.866;2023-02-12T01:55:59;101500.28;;;13.39;32.39
77205;BME280;66188;46.626;18.866;2023-02-12T01:58:29;101489.13;;;13.34;32.46
77205;BME280;66188;46.626;18.866;2023-02-12T02:00:56;101492.28;;;13.39;32.30
77205;BME280;66188;46.626;18.866;2023-02-12T02:03:23;101498.59;;;13.38;32.47
77205;BME280;66188;46.626;18.866;2023-02-12T02:05:59;101499.44;;;13.38;32.12
77205;BME280;66188;46.626;18.866;2023-02-12T02:08:26;101498.88;;;13.35;33.00
77205;BME280;66188;46.626;18.866;2023-02-12T02:10:51;101502.38;;;13.35;32.35
77205;BME280;66188;46.626;18.866;2023-02-12T02:13:17;101516.59;;;13.36;33.00
77205;BME280;66188;46.626;18.866;2023-02-12T02:16:28;101530.94;;;13.35;33.02
77205;BME280;66188;46.626;18.866;2023-02-12T02:27:54;101538.22;;;13.32;32.69
77205;BME280;66188;46.626;18.866;2023-02-12T02:30:31;101537.50;;;13.30;32.70
77205;BME280;66188;46.626;18.866;2023-02-12T02:38:59;101533.50;;;13.25;33.57
77205;BME280;66188;46.626;18.866;2023-02-12T02:41:38;101509.25;;;13.17;33.13
77205;BME280;66188;46.626;18.866;2023-02-12T02:44:14;101528.16;;;13.25;33.21
77205;BME280;66188;46.626;18.866;2023-02-12T02:46:45;101526.75;;;13.21;33.30
77205;BME280;66188;46.626;18.866;2023-02-12T02:49:43;101540.44;;;13.27;33.04
77205;BME280;66188;46.626;18.866;2023-02-12T02:52:17;101547.63;;;13.27;32.69
77205;BME280;66188;46.626;18.866;2023-02-12T02:54:51;101552.22;;;13.25;33.68
77205;BME280;66188;46.626;18.866;2023-02-12T02:57:24;101542.53;;;13.24;33.72
77205;BME280;66188;46.626;18.866;2023-02-12T02:59:55;101551.66;;;13.21;33.04
77205;BME280;66188;46.626;18.866;2023-02-12T03:02:36;101546.16;;;13.23;33.74
77205;BME280;66188;46.626;18.866;2023-02-12T03:05:46;101536.19;;;13.25;33.36
77205;BME280;66188;46.626;18.866;2023-02-12T03:08:04;101539.97;;;13.22;32.90
77205;BME280;66188;46.626;18.866;2023-02-12T03:10:36;101547.97;;;13.22;33.40
77205;BME280;66188;46.626;18.866;2023-02-12T03:13:25;101549.84;;;13.22;33.48
77205;BME280;66188;46.626;18.866;2023-02-12T03:16:09;101560.53;;;13.22;33.02
77205;BME280;66188;46.626;18.866;2023-02-12T03:18:45;101557.84;;;13.22;33.13
77205;BME280;66188;46.626;18.866;2023-02-12T03:21:18;101546.56;;;13.18;33.61
77205;BME280;66188;46.626;18.866;2023-02-12T03:24:25;101564.31;;;13.19;33.62
77205;BME280;66188;46.626;18.866;2023-02-12T03:27:26;101562.59;;;13.18;33.26
77205;BME280;66188;46.626;18.866;2023-02-12T03:29:54;101568.03;;;13.17;33.78
77205;BME280;66188;46.626;18.866;2023-02-12T03:35:06;101566.75;;;13.11;33.95
77205;BME280;66188;46.626;18.866;2023-02-12T03:37:37;101577.06;;;13.16;34.09
77205;BME280;66188;46.626;18.866;2023-02-12T03:40:10;101577.16;;;13.14;34.09
77205;BME280;66188;46.626;18.866;2023-02-12T03:50:57;101596.72;;;13.15;34.37
77205;BME280;66188;46.626;18.866;2023-02-12T03:53:28;101591.38;;;13.15;34.23
77205;BME280;66188;46.626;18.866;2023-02-12T03:56:01;101602.47;;;13.10;34.18
77205;BME280;66188;46.626;18.866;2023-02-12T03:58:33;101595.16;;;13.12;33.57
77205;BME280;66188;46.626;18.866;2023-02-12T04:01:00;101609.25;;;13.14;33.99
77205;BME280;66188;46.626;18.866;2023-02-12T04:03:27;101597.13;;;13.10;34.41
77205;BME280;66188;46.626;18.866;2023-02-12T04:05:54;101606.84;;;13.11;34.04
77205;BME280;66188;46.626;18.866;2023-02-12T04:08:19;101592.84;;;12.97;34.77
77205;BME280;66188;46.626;18.866;2023-02-12T04:16:12;101629.31;;;13.09;33.86
77205;BME280;66188;46.626;18.866;2023-02-12T04:18:43;101628.47;;;13.08;34.67
77205;BME280;66188;46.626;18.866;2023-02-12T04:24:05;101633.81;;;13.08;34.31
77205;BME280;66188;46.626;18.866;2023-02-12T04:26:53;101632.09;;;13.07;34.72
77205;BME280;66188;46.626;18.866;2023-02-12T04:29:31;101624.19;;;13.06;34.20
77205;BME280;66188;46.626;18.866;2023-02-12T04:32:03;101644.59;;;13.07;34.73
77205;BME280;66188;46.626;18.866;2023-02-12T04:35:08;101637.66;;;13.04;35.04
77205;BME280;66188;46.626;18.866;2023-02-12T04:37:41;101651.88;;;13.05;34.71
77205;BME280;66188;46.626;18.866;2023-02-12T04:40:11;101635.00;;;12.93;35.08
77205;BME280;66188;46.626;18.866;2023-02-12T04:42:49;101646.75;;;13.02;34.32
77205;BME280;66188;46.626;18.866;2023-02-12T04:45:24;101653.81;;;13.03;34.75
77205;BME280;66188;46.626;18.866;2023-02-12T04:47:51;101667.06;;;13.04;34.71
77205;BME280;66188;46.626;18.866;2023-02-12T04:50:17;101667.31;;;13.01;34.90
77205;BME280;66188;46.626;18.866;2023-02-12T04:52:43;101673.50;;;13.02;34.22
77205;BME280;66188;46.626;18.866;2023-02-12T04:55:09;101675.34;;;13.01;34.25
77205;BME280;66188;46.626;18.866;2023-02-12T04:57:34;101684.19;;;13.02;34.95
77205;BME280;66188;46.626;18.866;2023-02-12T05:00:00;101668.16;;;12.91;35.03
77205;BME280;66188;46.626;18.866;2023-02-12T05:02:25;101687.00;;;13.00;35.34
77205;BME280;66188;46.626;18.866;2023-02-12T05:04:51;101688.94;;;12.98;34.42
77205;BME280;66188;46.626;18.866;2023-02-12T05:07:16;101694.16;;;13.00;35.17
77205;BME280;66188;46.626;18.866;2023-02-12T05:09:42;101690.75;;;12.98;34.10
77205;BME280;66188;46.626;18.866;2023-02-12T05:12:08;101697.91;;;12.97;34.94
77205;BME280;66188;46.626;18.866;2023-02-12T05:14:33;101700.97;;;12.93;35.16
77205;BME280;66188;46.626;18.866;2023-02-12T05:16:59;101705.94;;;12.97;35.12
77205;BME280;66188;46.626;18.866;2023-02-12T05:19:25;101691.72;;;12.86;34.93
77205;BME280;66188;46.626;18.866;2023-02-12T05:21:50;101721.09;;;12.97;34.23
77205;BME280;66188;46.626;18.866;2023-02-12T05:24:16;101720.50;;;12.93;34.91
77205;BME280;66188;46.626;18.866;2023-02-12T05:26:43;101724.28;;;12.91;35.54
77205;BME280;66188;46.626;18.866;2023-02-12T05:29:09;101728.91;;;12.89;34.99
77205;BME280;66188;46.626;18.866;2023-02-12T05:31:34;101739.31;;;12.92;35.06
77205;BME280;66188;46.626;18.866;2023-02-12T05:34:00;101750.00;;;12.92;34.87
77205;BME280;66188;46.626;18.866;2023-02-12T05:36:27;101744.81;;;12.90;35.24
77205;BME280;66188;46.626;18.866;2023-02-12T05:38:56;101752.94;;;12.89;34.96
77205;BME280;66188;46.626;18.866;2023-02-12T05:41:23;101759.97;;;12.90;35.16
77205;BME280;66188;46.626;18.866;2023-02-12T05:43:49;101766.19;;;12.90;34.87
77205;BME280;66188;46.626;18.866;2023-02-12T05:46:16;101758.75;;;12.83;35.04
77205;BME280;66188;46.626;18.866;2023-02-12T05:48:42;101764.59;;;12.88;35.35
77205;BME280;66188;46.626;18.866;2023-02-12T05:51:11;101771.66;;;12.89;35.08
77205;BME280;66188;46.626;18.866;2023-02-12T05:53:37;101772.59;;;12.88;34.85
77205;BME280;66188;46.626;18.866;2023-02-12T05:56:15;101771.03;;;12.85;34.78
77205;BME280;66188;46.626;18.866;2023-02-12T05:58:43;101781.47;;;12.88;35.48
77205;BME280;66188;46.626;18.866;2023-02-12T06:01:17;101775.66;;;12.83;34.76
77205;BME280;66188;46.626;18.866;2023-02-12T06:03:43;101796.78;;;12.86;34.89
77205;BME280;66188;46.626;18.866;2023-02-12T06:06:09;101788.59;;;12.77;34.71
77205;BME280;66188;46.626;18.866;2023-02-12T06:08:35;101803.44;;;12.81;35.30
77205;BME280;66188;46.626;18.866;2023-02-12T06:11:04;101809.75;;;12.80;35.12
77205;BME280;66188;46.626;18.866;2023-02-12T06:13:30;101832.47;;;12.85;35.18
77205;BME280;66188;46.626;18.866;2023-02-12T06:15:57;101822.25;;;12.79;34.65
77205;BME280;66188;46.626;18.866;2023-02-12T06:18:23;101834.19;;;12.86;34.57
77205;BME280;66188;46.626;18.866;2023-02-12T06:20:49;101841.34;;;12.86;35.07
77205;BME280;66188;46.626;18.866;2023-02-12T06:23:14;101836.09;;;12.84;34.92
77205;BME280;66188;46.626;18.866;2023-02-12T06:25:40;101840.50;;;12.85;35.30
77205;BME280;66188;46.626;18.866;2023-02-12T06:28:05;101834.91;;;12.88;34.88
77205;BME280;66188;46.626;18.866;2023-02-12T06:30:33;101849.00;;;12.90;34.79
77205;BME280;66188;46.626;18.866;2023-02-12T06:32:59;101853.25;;;12.93;34.51
77205;BME280;66188;46.626;18.866;2023-02-12T06:35:26;101852.31;;;12.94;34.85
77205;BME280;66188;46.626;18.866;2023-02-12T06:37:51;101856.56;;;12.96;34.71
77205;BME280;66188;46.626;18.866;2023-02-12T06:40:17;101850.59;;;12.93;34.36
77205;BME280;66188;46.626;18.866;2023-02-12T06:42:43;101867.00;;;12.99;34.36
77205;BME280;66188;46.626;18.866;2023-02-12T06:45:09;101846.09;;;12.93;34.79
77205;BME280;66188;46.626;18.866;2023-02-12T06:47:35;101867.38;;;13.06;34.75
77205;BME280;66188;46.626;18.866;2023-02-12T06:50:01;101871.69;;;13.08;34.57
77205;BME280;66188;46.626;18.866;2023-02-12T06:52:26;101873.38;;;13.09;34.70
77205;BME280;66188;46.626;18.866;2023-02-12T06:54:52;101884.81;;;13.11;34.31
77205;BME280;66188;46.626;18.866;2023-02-12T06:57:18;101886.50;;;13.12;33.90
77205;BME280;66188;46.626;18.866;2023-02-12T06:59:44;101888.09;;;13.15;34.48
77205;BME280;66188;46.626;18.866;2023-02-12T07:02:10;101903.16;;;13.16;33.96
77205;BME280;66188;46.626;18.866;2023-02-12T07:04:39;101881.16;;;13.12;34.14
77205;BME280;66188;46.626;18.866;2023-02-12T07:07:05;101900.25;;;13.19;34.41
77205;BME280;66188;46.626;18.866;2023-02-12T07:09:31;101912.63;;;13.20;34.52
77205;BME280;66188;46.626;18.866;2023-02-12T07:11:57;101912.53;;;13.21;33.63
77205;BME280;66188;46.626;18.866;2023-02-12T07:14:24;101897.94;;;13.25;33.58
77205;BME280;66188;46.626;18.866;2023-02-12T07:16:50;101905.88;;;13.27;34.44
77205;BME280;66188;46.626;18.866;2023-02-12T07:19:16;101912.03;;;13.27;33.83
77205;BME280;66188;46.626;18.866;2023-02-12T07:21:42;101896.13;;;13.26;34.26
77205;BME280;66188;46.626;18.866;2023-02-12T07:24:09;101905.50;;;13.32;34.10
77205;BME280;66188;46.626;18.866;2023-02-12T07:26:36;101909.78;;;13.34;34.40
77205;BME280;66188;46.626;18.866;2023-02-12T07:29:02;101914.13;;;13.35;34.33
77205;BME280;66188;46.626;18.866;2023-02-12T07:31:28;101915.13;;;13.34;33.87
77205;BME280;66188;46.626;18.866;2023-02-12T07:33:56;101918.38;;;13.38;33.75
77205;BME280;66188;46.626;18.866;2023-02-12T07:36:23;101919.25;;;13.38;34.12
77205;BME280;66188;46.626;18.866;2023-02-12T07:38:49;101925.22;;;13.42;33.81
77205;BME280;66188;46.626;18.866;2023-02-12T07:41:20;101921.56;;;13.43;34.00
77205;BME280;66188;46.626;18.866;2023-02-12T07:43:48;101921.31;;;13.46;34.02
77205;BME280;66188;46.626;18.866;2023-02-12T07:46:20;101929.25;;;13.47;33.56
77205;BME280;66188;46.626;18.866;2023-02-12T07:48:47;101932.66;;;13.49;33.83
77205;BME280;66188;46.626;18.866;2023-02-12T07:51:15;101937.00;;;13.50;34.30
77205;BME280;66188;46.626;18.866;2023-02-12T07:53:43;101943.22;;;13.51;33.43
77205;BME280;66188;46.626;18.866;2023-02-12T07:56:12;101943.09;;;13.52;33.37
77205;BME280;66188;46.626;18.866;2023-02-12T07:58:39;101943.22;;;13.51;34.15
77205;BME280;66188;46.626;18.866;2023-02-12T08:03:41;101959.53;;;13.59;34.03
77205;BME280;66188;46.626;18.866;2023-02-12T08:06:15;101962.66;;;13.53;33.87
77205;BME280;66188;46.626;18.866;2023-02-12T08:08:41;101969.25;;;13.60;33.73
77205;BME280;66188;46.626;18.866;2023-02-12T08:11:08;101970.00;;;13.62;33.80
77205;BME280;66188;46.626;18.866;2023-02-12T08:13:37;101974.34;;;13.63;34.30
77205;BME280;66188;46.626;18.866;2023-02-12T08:16:07;101974.34;;;13.63;33.34
77205;BME280;66188;46.626;18.866;2023-02-12T08:18:33;101984.09;;;13.64;33.36
77205;BME280;66188;46.626;18.866;2023-02-12T08:21:07;101989.44;;;13.64;34.15
77205;BME280;66188;46.626;18.866;2023-02-12T08:23:33;101990.16;;;13.66;33.65
77205;BME280;66188;46.626;18.866;2023-02-12T08:28:34;102003.19;;;13.70;34.03
77205;BME280;66188;46.626;18.866;2023-02-12T08:31:06;102006.72;;;13.71;33.51
77205;BME280;66188;46.626;18.866;2023-02-12T08:33:35;102004.75;;;13.73;33.64
77205;BME280;66188;46.626;18.866;2023-02-12T08:36:06;102011.84;;;13.74;33.42
77205;BME280;66188;46.626;18.866;2023-02-12T08:38:32;102017.91;;;13.76;33.47
77205;BME280;66188;46.626;18.866;2023-02-12T08:41:09;101993.56;;;13.68;33.91
77205;BME280;66188;46.626;18.866;2023-02-12T08:43:38;102003.56;;;13.77;33.55
77205;BME280;66188;46.626;18.866;2023-02-12T08:46:04;102002.63;;;13.78;33.55
77205;BME280;66188;46.626;18.866;2023-02-12T08:48:31;102010.38;;;13.81;33.87
77205;BME280;66188;46.626;18.866;2023-02-12T08:51:13;102006.59;;;13.83;33.83
77205;BME280;66188;46.626;18.866;2023-02-12T08:53:41;102010.16;;;13.84;34.30
77205;BME280;66188;46.626;18.866;2023-02-12T08:56:07;102009.41;;;13.82;33.57
77205;BME280;66188;46.626;18.866;2023-02-12T08:58:34;102017.22;;;13.85;33.59
77205;BME280;66188;46.626;18.866;2023-02-12T09:01:01;102021.34;;;13.89;34.07
77205;BME280;66188;46.626;18.866;2023-02-12T09:03:27;102019.66;;;13.88;33.55
77205;BME280;66188;46.626;18.866;2023-02-12T09:05:53;102019.66;;;13.88;33.33
77205;BME280;66188;46.626;18.866;2023-02-12T09:08:18;102025.00;;;13.88;33.61
77205;BME280;66188;46.626;18.866;2023-02-12T09:10:45;102032.91;;;13.89;34.25
77205;BME280;66188;46.626;18.866;2023-02-12T09:13:12;102031.31;;;13.87;34.10
77205;BME280;66188;46.626;18.866;2023-02-12T09:15:42;102032.91;;;13.89;34.28
77205;BME280;66188;46.626;18.866;2023-02-12T09:18:09;102042.88;;;13.87;34.46
77205;BME280;66188;46.626;18.866;2023-02-12T09:20:40;102043.97;;;13.85;33.62
77205;BME280;66188;46.626;18.866;2023-02-12T09:23:07;102037.03;;;13.82;34.16
77205;BME280;66188;46.626;18.866;2023-02-12T09:25:34;102032.38;;;13.73;34.50
77205;BME280;66188;46.626;18.866;2023-02-12T09:28:03;102056.63;;;13.83;34.42
77205;BME280;66188;46.626;18.866;2023-02-12T09:30:29;102042.84;;;13.76;34.42
77205;BME280;66188;46.626;18.866;2023-02-12T09:32:55;102047.13;;;13.79;34.56
77205;BME280;66188;46.626;18.866;2023-02-12T09:35:22;102050.16;;;13.74;33.65
77205;BME280;66188;46.626;18.866;2023-02-12T09:37:48;102055.38;;;13.76;34.22
77205;BME280;66188;46.626;18.866;2023-02-12T09:40:30;102061.34;;;13.79;34.75
77205;BME280;66188;46.626;18.866;2023-02-12T09:43:14;102042.72;;;13.67;34.17
77205;BME280;66188;46.626;18.866;2023-02-12T09:45:59;102070.34;;;13.78;34.43
77205;BME280;66188;46.626;18.866;2023-02-12T09:50:56;102072.41;;;13.75;34.93
77205;BME280;66188;46.626;18.866;2023-02-12T09:53:27;102065.34;;;13.74;34.17
77205;BME280;66188;46.626;18.866;2023-02-12T09:55:55;102074.31;;;13.73;33.87
77205;BME280;66188;46.626;18.866;2023-02-12T09:58:34;102055.59;;;13.62;34.90
77205;BME280;66188;46.626;18.866;2023-02-12T10:01:10;102071.78;;;13.71;34.20
77205;BME280;66188;46.626;18.866;2023-02-12T10:03:37;102073.50;;;13.72;34.12
77205;BME280;66188;46.626;18.866;2023-02-12T10:06:06;102069.25;;;13.70;33.92
77205;BME280;66188;46.626;18.866;2023-02-12T10:11:29;102051.19;;;13.61;34.54
77205;BME280;66188;46.626;18.866;2023-02-12T10:28:16;102081.34;;;13.63;35.22
77205;BME280;66188;46.626;18.866;2023-02-12T10:30:58;102076.84;;;13.63;34.97
77205;BME280;66188;46.626;18.866;2023-02-12T10:39:19;102067.38;;;13.59;35.28
77205;BME280;66188;46.626;18.866;2023-02-12T10:42:00;102057.75;;;13.57;34.69
77205;BME280;66188;46.626;18.866;2023-02-12T10:44:28;102062.88;;;13.60;35.09
77205;BME280;66188;46.626;18.866;2023-02-12T10:46:54;102062.63;;;13.63;34.43
77205;BME280;66188;46.626;18.866;2023-02-12T10:49:20;102070.16;;;13.58;35.60
77205;BME280;66188;46.626;18.866;2023-02-12T10:52:02;102064.69;;;13.59;35.21
77205;BME280;66188;46.626;18.866;2023-02-12T10:54:46;102066.66;;;13.57;34.62
77205;BME280;66188;46.626;18.866;2023-02-12T10:57:20;102066.25;;;13.51;35.12
77205;BME280;66188;46.626;18.866;2023-02-12T10:59:50;102067.97;;;13.52;35.98
77205;BME280;66188;46.626;18.866;2023-02-12T11:02:22;102071.31;;;13.43;39.52
77205;BME280;66188;46.626;18.866;2023-02-12T11:04:48;102067.69;;;13.44;38.17
77205;BME280;66188;46.626;18.866;2023-02-12T11:07:14;102058.81;;;13.43;36.80
77205;BME280;66188;46.626;18.866;2023-02-12T11:09:45;102066.16;;;13.28;37.72
77205;BME280;66188;46.626;18.866;2023-02-12T11:14:48;102052.00;;;13.15;37.37
77205;BME280;66188;46.626;18.866;2023-02-12T11:17:26;102065.88;;;13.20;36.98
77205;BME280;66188;46.626;18.866;2023-02-12T11:20:14;102063.19;;;13.20;36.88
77205;BME280;66188;46.626;18.866;2023-02-12T11:25:19;102070.50;;;13.18;37.24
77205;BME280;66188;46.626;18.866;2023-02-12T11:36:22;102051.03;;;13.16;36.60
77205;BME280;66188;46.626;18.866;2023-02-12T11:38:54;102053.81;;;13.15;36.62
77205;BME280;66188;46.626;18.866;2023-02-12T11:41:39;102050.28;;;13.14;36.80
77205;BME280;66188;46.626;18.866;2023-02-12T11:44:19;102043.25;;;13.13;37.01
77205;BME280;66188;46.626;18.866;2023-02-12T11:46:52;102052.13;;;13.14;37.03
77205;BME280;66188;46.626;18.866;2023-02-12T11:49:24;102043.25;;;13.13;37.27
77205;BME280;66188;46.626;18.866;2023-02-12T11:51:53;102051.28;;;13.13;36.79
77205;BME280;66188;46.626;18.866;2023-02-12T11:54:23;102042.00;;;13.06;37.05
77205;BME280;66188;46.626;18.866;2023-02-12T11:56:50;102046.28;;;13.09;36.29
77205;BME280;66188;46.626;18.866;2023-02-12T11:59:36;102046.00;;;13.12;37.35
77205;BME280;66188;46.626;18.866;2023-02-12T12:02:20;102054.28;;;13.09;36.89
77205;BME280;66188;46.626;18.866;2023-02-12T12:04:50;102051.63;;;13.09;36.57
77205;BME280;66188;46.626;18.866;2023-02-12T12:07:24;102053.31;;;13.10;36.87
77205;BME280;66188;46.626;18.866;2023-02-12T12:12:56;102056.19;;;13.07;37.01
77205;BME280;66188;46.626;18.866;2023-02-12T12:23:59;102043.88;;;13.04;37.01
77205;BME280;66188;46.626;18.866;2023-02-12T12:26:29;102041.34;;;13.03;37.49
77205;BME280;66188;46.626;18.866;2023-02-12T12:29:12;102039.63;;;13.02;37.00
77205;BME280;66188;46.626;18.866;2023-02-12T12:31:58;102031.00;;;12.98;36.79
77205;BME280;66188;46.626;18.866;2023-02-12T12:34:26;102032.59;;;13.01;37.64
77205;BME280;66188;46.626;18.866;2023-02-12T12:40:12;102023.84;;;12.99;37.10
77205;BME280;66188;46.626;18.866;2023-02-12T12:58:02;102026.22;;;12.91;37.34
77205;BME280;66188;46.626;18.866;2023-02-12T13:00:57;102042.63;;;12.97;37.55
77205;BME280;66188;46.626;18.866;2023-02-12T13:17:27;102029.97;;;12.88;37.35
77205;BME280;66188;46.626;18.866;2023-02-12T13:20:25;102042.25;;;12.91;37.04
77205;BME280;66188;46.626;18.866;2023-02-12T13:22:58;102055.47;;;12.92;37.29
77205;BME280;66188;46.626;18.866;2023-02-12T13:28:51;102052.94;;;12.91;37.52
77205;BME280;66188;46.626;18.866;2023-02-12T13:31:21;102058.28;;;12.91;37.59
77205;BME280;66188;46.626;18.866;2023-02-12T13:33:54;102055.47;;;12.92;37.57
77205;BME280;66188;46.626;18.866;2023-02-12T13:36:20;102057.28;;;12.92;37.58
77205;BME280;66188;46.626;18.866;2023-02-12T13:41:28;102057.53;;;12.89;37.64
77205;BME280;66188;46.626;18.866;2023-02-12T13:49:49;102069.91;;;12.90;37.79
77205;BME280;66188;46.626;18.866;2023-02-12T13:52:48;102061.91;;;12.90;37.67
77205;BME280;66188;46.626;18.866;2023-02-12T13:55:36;102071.00;;;12.87;37.40
77205;BME280;66188;46.626;18.866;2023-02-12T14:01:06;102066.38;;;12.89;37.75
77205;BME280;66188;46.626;18.866;2023-02-12T14:03:33;102066.38;;;12.89;37.55
77205;BME280;66188;46.626;18.866;2023-02-12T14:06:18;102072.72;;;12.88;37.66
77205;BME280;66188;46.626;18.866;2023-02-12T14:09:08;102067.47;;;12.87;38.23
77205;BME280;66188;46.626;18.866;2023-02-12T14:11:46;102066.63;;;12.86;37.60
77205;BME280;66188;46.626;18.866;2023-02-12T14:14:12;102050.59;;;12.86;37.43
77205;BME280;66188;46.626;18.866;2023-02-12T14:16:44;102051.69;;;12.84;37.33
77205;BME280;66188;46.626;18.866;2023-02-12T14:19:38;102056.78;;;12.87;37.67
77205;BME280;66188;46.626;18.866;2023-02-12T14:24:57;102060.31;;;12.87;37.65
77205;BME280;66188;46.626;18.866;2023-02-12T14:27:36;102053.72;;;12.80;37.73
77205;BME280;66188;46.626;18.866;2023-02-12T14:37:53;102062.38;;;12.84;38.03
77205;BME280;66188;46.626;18.866;2023-02-12T14:43:26;102064.19;;;12.83;37.76
77205;BME280;66188;46.626;18.866;2023-02-12T14:45:53;102061.50;;;12.83;38.11
77205;BME280;66188;46.626;18.866;2023-02-12T14:51:19;102057.84;;;12.84;37.78
77205;BME280;66188;46.626;18.866;2023-02-12T14:53:46;102065.13;;;12.82;38.23
77205;BME280;66188;46.626;18.866;2023-02-12T14:56:18;102062.47;;;12.82;37.64
77205;BME280;66188;46.626;18.866;2023-02-12T14:58:45;102071.22;;;12.84;38.18
77205;BME280;66188;46.626;18.866;2023-02-12T15:01:11;102068.66;;;12.83;38.20
77205;BME280;66188;46.626;18.866;2023-02-12T15:08:44;102072.41;;;12.80;37.84
77205;BME280;66188;46.626;18.866;2023-02-12T15:11:42;102075.94;;;12.81;37.72
77205;BME280;66188;46.626;18.866;2023-02-12T15:16:48;102078.19;;;12.74;42.77
77205;BME280;66188;46.626;18.866;2023-02-12T15:20:16;102071.41;;;12.57;44.71
77205;BME280;66188;46.626;18.866;2023-02-12T15:22:41;102074.59;;;12.62;43.81
77205;BME280;66188;46.626;18.866;2023-02-12T15:27:50;102069.34;;;12.97;41.32
77205;BME280;66188;46.626;18.866;2023-02-12T15:30:18;102068.03;;;13.15;39.06
77205;BME280;66188;46.626;18.866;2023-02-12T15:32:45;102065.72;;;13.35;38.25
77205;BME280;66188;46.626;18.866;2023-02-12T15:35:38;102072.09;;;13.56;38.02
77205;BME280;66188;46.626;18.866;2023-02-12T15:38:20;102077.78;;;13.75;38.17
77205;BME280;66188;46.626;18.866;2023-02-12T15:40:54;102072.09;;;13.90;36.52
77205;BME280;66188;46.626;18.866;2023-02-12T15:43:20;102071.72;;;14.06;37.04